createdAt,value
2018-10-19T00:02:09.695Z,97859.63
2018-10-19T00:04:40.235Z,97853.13
2018-10-19T00:07:10.837Z,97853.72
2018-10-19T00:09:41.378Z,97860.66
2018-10-19T00:12:11.866Z,97855.12
2018-10-19T00:14:42.484Z,97857.57
2018-10-19T00:17:13.438Z,97858.75
2018-10-19T00:19:44.012Z,97844.67
2018-10-19T00:22:14.434Z,97856.25
2018-10-19T00:24:45.047Z,97855.54
2018-10-19T00:27:15.689Z,97848.55
2018-10-19T00:29:47.500Z,97849.63
2018-10-19T00:32:17.979Z,97843.96
2018-10-19T00:34:48.401Z,97846.22
2018-10-19T00:37:18.878Z,97846.56
2018-10-19T00:39:49.389Z,97848.45
2018-10-19T00:42:19.821Z,97847.27
2018-10-19T00:44:50.298Z,97845.14
2018-10-19T00:47:20.948Z,97840.19
2018-10-19T00:49:51.369Z,97838.98
2018-10-19T00:52:21.856Z,97841.48
2018-10-19T00:54:52.639Z,97827.77
2018-10-19T00:57:23.187Z,97821.97
2018-10-19T00:59:53.770Z,97824.56
2018-10-19T01:02:24.281Z,97821.50
2018-10-19T01:04:54.747Z,97828.80
2018-10-19T01:07:25.393Z,97821.01
2018-10-19T01:09:55.934Z,97831.53
2018-10-19T01:12:26.394Z,97829.52
2018-10-19T01:14:57.040Z,97837.07
2018-10-19T01:17:27.580Z,97834.25
2018-10-19T01:19:58.073Z,97835.15
2018-10-19T01:22:28.571Z,97831.38
2018-10-19T01:24:59.085Z,97834.44
2018-10-19T01:27:29.537Z,97827.60
2018-10-19T01:30:00.097Z,97827.23
2018-10-19T01:32:30.667Z,97827.23
2018-10-19T01:35:02.326Z,97827.72
2018-10-19T01:37:32.744Z,97826.14
2018-10-19T01:40:04.356Z,97826.52
2018-10-19T01:42:34.847Z,97821.66
2018-10-19T01:45:05.825Z,97821.91
2018-10-19T01:47:36.335Z,97824.51
2018-10-19T01:50:07.822Z,97828.74
2018-10-19T01:52:38.680Z,97826.02
2018-10-19T01:55:10.154Z,97822.95
2018-10-19T01:57:40.697Z,97827.32
2018-10-19T02:00:11.225Z,97820.36
2018-10-19T02:02:41.763Z,97818.56
2018-10-19T02:05:12.511Z,97823.20
2018-10-19T02:07:43.012Z,97818.22
2018-10-19T02:10:13.534Z,97825.31
2018-10-19T02:12:43.940Z,97831.59
2018-10-19T02:15:14.443Z,97833.48
2018-10-19T02:17:44.854Z,97826.73
2018-10-19T02:20:15.305Z,97834.06
2018-10-19T02:22:45.757Z,97832.64
2018-10-19T02:25:16.370Z,97833.60
2018-10-19T02:27:46.768Z,97831.93
2018-10-19T02:30:17.352Z,97831.47
2018-10-19T02:32:47.861Z,97827.69
2018-10-19T02:35:18.502Z,97834.09
2018-10-19T02:37:49.084Z,97833.48
2018-10-19T02:40:19.530Z,97831.59
2018-10-19T02:42:49.938Z,97837.84
2018-10-19T02:45:20.387Z,97837.00
2018-10-19T02:47:50.750Z,97839.14
2018-10-19T02:50:21.140Z,97837.59
2018-10-19T02:52:51.616Z,97834.89
2018-10-19T02:55:22.297Z,97832.77
2018-10-19T02:57:52.696Z,97827.19
2018-10-19T03:00:23.109Z,97832.14
2018-10-19T03:02:53.669Z,97828.50
2018-10-19T03:05:24.180Z,97833.10
2018-10-19T03:07:54.761Z,97828.73
2018-10-19T03:10:25.299Z,97832.39
2018-10-19T03:12:55.693Z,97825.80
2018-10-19T03:15:26.166Z,97823.30
2018-10-19T03:17:56.676Z,97826.95
2018-10-19T03:20:27.179Z,97831.21
2018-10-19T03:22:57.694Z,97829.33
2018-10-19T03:25:28.176Z,97828.73
2018-10-19T03:27:58.517Z,97822.95
2018-10-19T03:30:29.027Z,97827.10
2018-10-19T03:32:59.514Z,97824.84
2018-10-19T03:35:31.388Z,97819.19
2018-10-19T03:38:01.860Z,97823.80
2018-10-19T03:40:32.382Z,97822.84
2018-10-19T03:43:02.981Z,97827.81
2018-10-19T03:45:33.488Z,97823.33
2018-10-19T03:48:03.957Z,97824.14
2018-10-19T03:50:34.468Z,97820.73
2018-10-19T03:53:04.896Z,97821.91
2018-10-19T03:55:35.742Z,97823.92
2018-10-19T03:58:06.323Z,97823.12
2018-10-19T04:00:36.857Z,97820.02
2018-10-19T04:03:07.596Z,97819.55
2018-10-19T04:05:38.202Z,97823.83
2018-10-19T04:08:08.657Z,97820.27
2018-10-19T04:10:39.189Z,97823.58
2018-10-19T04:13:09.687Z,97816.38
2018-10-19T04:15:40.387Z,97822.03
2018-10-19T04:18:10.913Z,97823.45
2018-10-19T04:20:41.428Z,97811.77
2018-10-19T04:23:11.966Z,97820.14
2018-10-19T04:25:42.696Z,97824.05
2018-10-19T04:28:13.869Z,97820.14
2018-10-19T04:30:44.318Z,97815.78
2018-10-19T04:33:14.897Z,97814.02
2018-10-19T04:35:45.499Z,97820.52
2018-10-19T04:38:15.909Z,97821.11
2018-10-19T04:40:46.352Z,97823.95
2018-10-19T04:43:16.805Z,97828.19
2018-10-19T04:45:47.345Z,97831.41
2018-10-19T04:48:17.740Z,97831.75
2018-10-19T04:50:48.317Z,97835.77
2018-10-19T04:53:18.826Z,97836.85
2018-10-19T04:55:50.261Z,97838.62
2018-10-19T04:58:20.669Z,97845.11
2018-10-19T05:00:51.161Z,97839.58
2018-10-19T05:03:21.625Z,97843.13
2018-10-19T05:05:52.099Z,97843.37
2018-10-19T05:08:22.542Z,97846.09
2018-10-19T05:10:52.953Z,97848.94
2018-10-19T05:13:23.418Z,97850.45
2018-10-19T05:15:53.993Z,97852.96
2018-10-19T05:18:24.512Z,97861.16
2018-10-19T05:20:55.045Z,97858.66
2018-10-19T05:23:25.477Z,97859.02
2018-10-19T05:25:55.961Z,97859.50
2018-10-19T05:28:26.368Z,97856.44
2018-10-19T05:30:56.809Z,97857.96
2018-10-19T05:33:27.295Z,97858.56
2018-10-19T05:35:57.898Z,97862.36
2018-10-19T05:38:28.393Z,97858.91
2018-10-19T05:40:58.901Z,97856.53
2018-10-19T05:43:29.399Z,97863.98
2018-10-19T05:45:59.868Z,97870.52
2018-10-19T05:48:30.278Z,97868.97
2018-10-19T05:51:00.736Z,97874.02
2018-10-19T05:53:31.302Z,97878.28
2018-10-19T05:56:01.854Z,97872.84
2018-10-19T05:58:32.973Z,97878.16
2018-10-19T06:01:03.544Z,97878.40
2018-10-19T06:03:34.006Z,97879.45
2018-10-19T06:06:04.600Z,97889.24
2018-10-19T06:08:35.079Z,97892.80
2018-10-19T06:11:06.195Z,97891.27
2018-10-19T06:13:36.666Z,97898.69
2018-10-19T06:16:07.664Z,97898.78
2018-10-19T06:18:38.125Z,97906.00
2018-10-19T06:21:08.681Z,97910.61
2018-10-19T06:23:39.201Z,97912.39
2018-10-19T06:26:09.705Z,97906.91
2018-10-19T06:28:40.080Z,97904.86
2018-10-19T06:31:10.557Z,97909.44
2018-10-19T06:33:41.050Z,97901.05
2018-10-19T06:36:12.432Z,97909.43
2018-10-19T06:38:42.891Z,97903.85
2018-10-19T06:41:13.468Z,97912.23
2018-10-19T06:43:43.876Z,97910.04
2018-10-19T06:46:14.402Z,97907.00
2018-10-19T06:48:44.822Z,97908.12
2018-10-19T06:51:15.364Z,97907.27
2018-10-19T06:53:45.869Z,97914.16
2018-10-19T06:56:16.765Z,97909.72
2018-10-19T06:58:47.292Z,97911.60
2018-10-19T07:01:17.810Z,97908.38
2018-10-19T07:03:48.318Z,97904.09
2018-10-19T07:06:18.981Z,97914.91
2018-10-19T07:08:49.493Z,97908.71
2018-10-19T07:11:19.928Z,97911.02
2018-10-19T07:13:50.440Z,97911.49
2018-10-19T07:16:21.105Z,97914.08
2018-10-19T07:18:51.461Z,97910.80
2018-10-19T07:21:22.354Z,97910.55
2018-10-19T07:23:53.051Z,97910.63
2018-10-19T07:26:23.470Z,97918.86
2018-10-19T07:28:54.006Z,97913.50
2018-10-19T07:31:24.456Z,97916.88
2018-10-19T07:33:55.260Z,97909.17
2018-10-19T07:36:26.673Z,97913.17
2018-10-19T07:38:57.182Z,97909.16
2018-10-19T07:41:27.673Z,97907.31
2018-10-19T07:43:58.178Z,97911.38
2018-10-19T07:46:28.627Z,97909.89
2018-10-19T07:48:59.250Z,97908.14
2018-10-19T07:51:29.726Z,97908.77
2018-10-19T07:54:01.118Z,97905.37
2018-10-19T07:56:31.834Z,97899.00
2018-10-19T07:59:02.352Z,97896.06
2018-10-19T08:01:32.835Z,97892.13
2018-10-19T08:04:03.585Z,97895.09
2018-10-19T08:06:34.235Z,97893.26
2018-10-19T08:09:05.206Z,97901.00
2018-10-19T08:11:35.709Z,97896.81
2018-10-19T08:14:06.367Z,97896.81
2018-10-19T08:16:36.885Z,97900.94
2018-10-19T08:19:07.513Z,97899.56
2018-10-19T08:21:37.933Z,97899.09
2018-10-19T08:24:08.349Z,97893.70
2018-10-19T08:26:38.968Z,97889.70
2018-10-19T08:29:09.565Z,97893.46
2018-10-19T08:31:40.042Z,97886.58
2018-10-19T08:34:10.524Z,97888.77
2018-10-19T08:36:41.132Z,97893.53
2018-10-19T08:39:11.698Z,97896.52
2018-10-19T08:41:42.260Z,97900.23
2018-10-19T08:44:12.757Z,97897.60
2018-10-19T08:46:43.690Z,97901.16
2018-10-19T08:49:14.180Z,97903.13
2018-10-19T08:51:44.718Z,97908.39
2018-10-19T08:54:15.154Z,97915.56
2018-10-19T08:56:46.578Z,97908.28
2018-10-19T08:59:17.175Z,97905.86
2018-10-19T09:01:47.588Z,97909.70
2018-10-19T09:04:18.069Z,97911.24
2018-10-19T09:06:48.548Z,97911.86
2018-10-19T09:09:19.109Z,97909.59
2018-10-19T09:11:49.561Z,97919.92
2018-10-19T09:14:31.607Z,97913.55
2018-10-19T09:17:02.255Z,97920.94
2018-10-19T09:19:32.750Z,97920.20
2018-10-19T09:22:03.202Z,97916.70
2018-10-19T09:24:33.737Z,97901.98
2018-10-19T09:27:04.311Z,97902.59
2018-10-19T09:29:34.809Z,97900.19
2018-10-19T09:32:05.232Z,97899.44
2018-10-19T09:34:35.955Z,97896.87
2018-10-19T09:37:08.284Z,97895.75
2018-10-19T09:39:38.770Z,97899.38
2018-10-19T09:42:09.820Z,97891.52
2018-10-19T09:44:40.283Z,97891.41
2018-10-19T09:47:10.859Z,97891.13
2018-10-19T09:49:41.321Z,97884.30
2018-10-19T09:52:11.768Z,97883.84
2018-10-19T09:54:42.199Z,97878.50
2018-10-19T09:57:12.866Z,97885.37
2018-10-19T09:59:43.288Z,97872.19
2018-10-19T10:02:13.637Z,97878.22
2018-10-19T10:04:44.134Z,97873.27
2018-10-19T10:07:14.622Z,97873.63
2018-10-19T10:09:45.090Z,97870.70
2018-10-19T10:12:15.593Z,97873.91
2018-10-19T10:14:46.088Z,97878.56
2018-10-19T10:17:16.701Z,97876.34
2018-10-19T10:19:47.157Z,97878.12
2018-10-19T10:22:17.601Z,97869.94
2018-10-19T10:24:48.175Z,97869.15
2018-10-19T10:27:18.542Z,97867.44
2018-10-19T10:29:49.011Z,97867.72
2018-10-19T10:32:19.555Z,97866.60
2018-10-19T10:34:50.002Z,97867.36
2018-10-19T10:37:20.448Z,97857.07
2018-10-19T10:39:50.963Z,97860.83
2018-10-19T10:42:21.414Z,97857.39
2018-10-19T10:44:51.877Z,97855.83
2018-10-19T10:47:22.380Z,97854.39
2018-10-19T10:49:52.765Z,97855.53
2018-10-19T10:52:23.213Z,97857.16
2018-10-19T10:54:53.703Z,97851.75
2018-10-19T10:57:25.874Z,97856.79
2018-10-19T10:59:56.317Z,97843.84
2018-10-19T11:02:26.821Z,97844.05
2018-10-19T11:04:57.287Z,97840.92
2018-10-19T11:07:27.852Z,97840.68
2018-10-19T11:09:58.294Z,97845.87
2018-10-19T11:12:28.779Z,97846.39
2018-10-19T11:14:59.306Z,97847.00
2018-10-19T11:17:30.012Z,97847.20
2018-10-19T11:20:00.513Z,97847.45
2018-10-19T11:22:30.967Z,97845.51
2018-10-19T11:25:01.462Z,97846.14
2018-10-19T11:27:31.901Z,97842.44
2018-10-19T11:30:02.306Z,97844.31
2018-10-19T11:32:32.787Z,97844.00
2018-10-19T11:35:03.328Z,97849.38
2018-10-19T11:37:34.026Z,97845.05
2018-10-19T11:40:32.068Z,97845.95
2018-10-19T11:43:02.593Z,97844.70
2018-10-19T11:45:34.010Z,97841.77
2018-10-19T11:48:04.525Z,97834.28
2018-10-19T11:50:35.264Z,97834.31
2018-10-19T11:53:06.063Z,97828.36
2018-10-19T11:58:18.645Z,97822.91
2018-10-19T12:00:48.989Z,97824.27
2018-10-19T12:03:19.452Z,97822.44
2018-10-19T12:05:49.949Z,97800.80
2018-10-19T12:08:20.568Z,97815.93
2018-10-19T12:10:51.077Z,97813.15
2018-10-19T12:13:21.597Z,97814.69
2018-10-19T12:15:52.066Z,97823.16
2018-10-19T12:18:22.541Z,97820.41
2018-10-19T12:20:52.998Z,97820.89
2018-10-19T12:23:23.429Z,97821.56
2018-10-19T12:25:53.992Z,97827.44
2018-10-19T12:28:24.452Z,97829.03
2018-10-19T12:30:54.935Z,97824.30
2018-10-19T12:33:25.466Z,97818.86
2018-10-19T12:35:55.945Z,97818.89
2018-10-19T12:38:26.457Z,97811.47
2018-10-19T12:40:57.190Z,97814.92
2018-10-19T12:43:27.702Z,97819.79
2018-10-19T12:46:36.074Z,97820.47
2018-10-19T12:49:06.817Z,97817.78
2018-10-19T12:51:37.624Z,97823.03
2018-10-19T12:54:08.523Z,97824.25
2018-10-19T12:56:39.252Z,97828.42
2018-10-19T12:59:09.836Z,97824.13
2018-10-19T13:01:40.416Z,97818.38
2018-10-19T13:04:10.926Z,97821.17
2018-10-19T13:06:41.478Z,97824.60
2018-10-19T13:09:13.495Z,97820.98
2018-10-19T13:11:44.586Z,97827.84
2018-10-19T13:14:15.093Z,97830.47
2018-10-19T13:16:45.535Z,97827.95
2018-10-19T13:19:16.031Z,97822.02
2018-10-19T13:21:46.517Z,97828.92
2018-10-19T13:24:17.115Z,97830.91
2018-10-19T13:26:47.688Z,97821.34
2018-10-19T13:29:18.068Z,97822.64
2018-10-19T13:31:48.576Z,97821.34
2018-10-19T13:34:19.126Z,97824.58
2018-10-19T13:36:49.926Z,97827.31
2018-10-19T13:39:20.436Z,97819.70
2018-10-19T13:41:50.937Z,97816.25
2018-10-19T13:44:21.370Z,97818.25
2018-10-19T13:46:51.997Z,97816.62
2018-10-19T13:49:22.418Z,97819.24
2018-10-19T13:51:53.033Z,97821.07
2018-10-19T13:54:23.481Z,97822.47
2018-10-19T13:56:55.799Z,97815.10
2018-10-19T13:59:26.322Z,97816.20
2018-10-19T14:01:56.822Z,97816.62
2018-10-19T14:04:27.314Z,97818.34
2018-10-19T14:06:57.815Z,97808.97
2018-10-19T14:09:28.171Z,97816.67
2018-10-19T14:11:58.704Z,97813.94
2018-10-19T14:14:29.134Z,97814.06
2018-10-19T14:16:59.855Z,97816.44
2018-10-19T14:19:31.080Z,97815.72
2018-10-19T14:22:01.639Z,97811.73
2018-10-19T14:24:32.097Z,97809.42
2018-10-19T14:27:02.532Z,97804.67
2018-10-19T14:29:33.055Z,97787.19
2018-10-19T14:32:03.539Z,97799.38
2018-10-19T14:34:34.185Z,97796.23
2018-10-19T14:37:04.952Z,97801.09
2018-10-19T14:39:35.500Z,97796.97
2018-10-19T14:42:06.161Z,97797.59
2018-10-19T14:44:36.737Z,97790.98
2018-10-19T14:47:07.366Z,97798.70
2018-10-19T14:49:37.819Z,97798.47
2018-10-19T14:52:08.271Z,97798.25
2018-10-19T14:54:38.930Z,97796.26
2018-10-19T14:57:09.538Z,97793.17
2018-10-19T14:59:39.938Z,97800.17
2018-10-19T15:02:10.502Z,97795.24
2018-10-19T15:04:40.936Z,97792.42
2018-10-19T15:07:11.380Z,97793.98
2018-10-19T15:09:42.008Z,97792.47
2018-10-19T15:12:12.468Z,97793.23
2018-10-19T15:14:42.922Z,97793.78
2018-10-19T15:17:14.898Z,97801.88
2018-10-19T15:19:45.432Z,97799.05
2018-10-19T15:22:15.905Z,97803.05
2018-10-19T15:24:46.386Z,97806.34
2018-10-19T15:27:16.935Z,97812.45
2018-10-19T15:29:47.488Z,97818.66
2018-10-19T15:32:17.874Z,97813.69
2018-10-19T15:34:48.240Z,97815.61
2018-10-19T15:37:18.986Z,97815.89
2018-10-19T15:39:49.444Z,97815.46
2018-10-19T15:42:19.926Z,97812.77
2018-10-19T15:44:50.399Z,97821.77
2018-10-19T15:47:25.851Z,97823.77
2018-10-19T15:49:57.751Z,97830.55
2018-10-19T15:52:28.644Z,97830.64
2018-10-19T15:54:59.155Z,97827.01
2018-10-19T15:57:29.852Z,97825.62
2018-10-19T16:00:00.421Z,97829.31
2018-10-19T16:02:30.862Z,97838.92
2018-10-19T16:05:01.446Z,97836.28
2018-10-19T16:07:31.928Z,97840.84
2018-10-19T16:10:02.532Z,97839.28
2018-10-19T16:12:33.103Z,97837.00
2018-10-19T16:15:03.657Z,97838.92
2018-10-19T16:17:34.336Z,97838.84
2018-10-19T16:20:05.226Z,97837.78
2018-10-19T16:22:35.644Z,97836.29
2018-10-19T16:25:07.057Z,97839.01
2018-10-19T16:27:38.594Z,97840.42
2018-10-19T16:30:10.861Z,97848.51
2018-10-19T16:32:41.585Z,97844.11
2018-10-19T16:35:12.198Z,97843.17
2018-10-19T16:37:42.895Z,97840.95
2018-10-19T16:40:13.416Z,97854.00
2018-10-19T16:42:43.935Z,97857.16
2018-10-19T16:45:14.536Z,97854.22
2018-10-19T16:47:44.946Z,97849.33
2018-10-19T16:50:15.538Z,97848.55
2018-10-19T16:52:46.068Z,97845.11
2018-10-19T16:55:16.698Z,97849.86
2018-10-19T16:57:47.378Z,97858.38
2018-10-19T17:00:17.832Z,97859.36
2018-10-19T17:02:48.285Z,97816.61
2018-10-19T17:05:18.935Z,97860.91
2018-10-19T17:07:49.724Z,97863.98
2018-10-19T17:10:20.224Z,97865.88
2018-10-19T17:12:50.879Z,97870.82
2018-10-19T17:15:21.287Z,97873.09
2018-10-19T17:17:51.873Z,97863.47
2018-10-19T17:20:22.389Z,97872.21
2018-10-19T17:22:52.800Z,97874.73
2018-10-19T17:25:23.339Z,97879.34
2018-10-19T17:27:53.825Z,97886.34
2018-10-19T17:30:24.376Z,97889.09
2018-10-19T17:32:55.014Z,97888.77
2018-10-19T17:35:25.400Z,97888.69
2018-10-19T17:37:56.229Z,97892.98
2018-10-19T17:40:26.705Z,97894.47
2018-10-19T17:42:57.255Z,97890.66
2018-10-19T17:45:27.773Z,97891.34
2018-10-19T17:47:58.376Z,97889.75
2018-10-19T17:50:28.885Z,97892.22
2018-10-19T17:52:59.358Z,97893.52
2018-10-19T17:55:29.839Z,97895.44
2018-10-19T17:58:00.534Z,97893.05
2018-10-19T18:00:31.010Z,97891.52
2018-10-19T18:03:01.568Z,97891.47
2018-10-19T18:05:32.043Z,97889.25
2018-10-19T18:08:02.619Z,97898.80
2018-10-19T18:10:33.131Z,97894.56
2018-10-19T18:13:03.629Z,97899.95
2018-10-19T18:15:34.197Z,97900.98
2018-10-19T18:18:05.272Z,97896.05
2018-10-19T18:20:35.738Z,97899.13
2018-10-19T18:23:06.446Z,97902.81
2018-10-19T18:25:36.842Z,97903.51
2018-10-19T18:28:07.342Z,97905.23
2018-10-19T18:30:37.781Z,97902.39
2018-10-19T18:33:08.254Z,97897.17
2018-10-19T18:35:39.080Z,97897.78
2018-10-19T18:38:09.809Z,97905.23
2018-10-19T18:40:40.264Z,97901.14
2018-10-19T18:43:10.670Z,97901.14
2018-10-19T18:45:41.228Z,97907.30
2018-10-19T18:48:11.681Z,97902.45
2018-10-19T18:50:42.329Z,97914.92
2018-10-19T18:53:12.886Z,97912.19
2018-10-19T18:55:43.224Z,97911.72
2018-10-19T18:58:15.529Z,97912.83
2018-10-19T19:00:46.012Z,97918.52
2018-10-19T19:03:16.507Z,97916.98
2018-10-19T19:05:46.980Z,97919.86
2018-10-19T19:08:17.422Z,97917.48
2018-10-19T19:10:47.944Z,97922.00
2018-10-19T19:13:23.380Z,97921.73
2018-10-19T19:15:53.769Z,97922.20
2018-10-19T19:18:24.313Z,97919.91
2018-10-19T19:20:55.182Z,97921.64
2018-10-19T19:23:25.663Z,97923.65
2018-10-19T19:26:00.963Z,97919.64
2018-10-19T19:28:31.498Z,97919.81
2018-10-19T19:31:02.019Z,97923.83
2018-10-19T19:33:37.277Z,97927.27
2018-10-19T19:36:08.298Z,97933.80
2018-10-19T19:38:39.084Z,97923.78
2018-10-19T19:41:14.549Z,97929.70
2018-10-19T19:43:45.220Z,97935.04
2018-10-19T19:46:15.846Z,97929.32
2018-10-19T19:48:52.102Z,97932.49
2018-10-19T19:51:22.569Z,97937.75
2018-10-19T19:53:53.066Z,97932.80
2018-10-19T19:56:24.429Z,97936.02
2018-10-19T19:58:55.210Z,97935.84
2018-10-19T20:01:25.750Z,97931.59
2018-10-19T20:03:56.237Z,97927.59
2018-10-19T20:06:26.707Z,97931.59
2018-10-19T20:08:57.259Z,97933.60
2018-10-19T20:11:27.672Z,97934.21
2018-10-19T20:13:58.189Z,97932.23
2018-10-19T20:16:35.957Z,97937.66
2018-10-19T20:19:06.938Z,97934.34
2018-10-19T20:21:37.447Z,97931.40
2018-10-19T20:24:08.177Z,97934.81
2018-10-19T20:26:38.681Z,97937.08
2018-10-19T20:29:09.209Z,97934.38
2018-10-19T20:31:40.013Z,97934.71
2018-10-19T20:34:10.519Z,97935.08
2018-10-19T20:36:41.139Z,97929.30
2018-10-19T20:39:12.971Z,97926.45
2018-10-19T20:41:43.475Z,97929.97
2018-10-19T20:44:14.026Z,97929.03
2018-10-19T20:46:44.477Z,97922.64
2018-10-19T20:49:14.873Z,97915.63
2018-10-19T20:51:45.317Z,97913.85
2018-10-19T20:54:15.906Z,97911.48
2018-10-19T20:56:46.471Z,97915.99
2018-10-19T20:59:17.872Z,97914.13
2018-10-19T21:01:48.504Z,97908.67
2018-10-19T21:04:19.110Z,97910.91
2018-10-19T21:06:49.738Z,97911.28
2018-10-19T21:09:20.351Z,97918.30
2018-10-19T21:11:50.791Z,97919.10
2018-10-19T21:14:21.339Z,97917.56
2018-10-19T21:16:51.772Z,97910.81
2018-10-19T21:19:22.664Z,97912.22
2018-10-19T21:21:53.314Z,97906.20
2018-10-19T21:24:23.879Z,97909.05
2018-10-19T21:26:54.484Z,97902.89
2018-10-19T21:29:25.112Z,97904.77
2018-10-19T21:31:55.775Z,97903.86
2018-10-19T21:34:26.295Z,97901.62
2018-10-19T21:36:56.842Z,97903.39
2018-10-19T21:39:27.442Z,97897.95
2018-10-19T21:41:58.597Z,97900.42
2018-10-19T21:44:29.166Z,97903.86
2018-10-19T21:46:59.705Z,97892.27
2018-10-19T21:49:30.161Z,97892.27
2018-10-19T21:52:00.676Z,97890.59
2018-10-19T21:54:31.104Z,97891.30
2018-10-19T21:57:01.672Z,97886.22
2018-10-19T21:59:32.191Z,97889.53
2018-10-19T22:02:02.675Z,97885.95
2018-10-19T22:04:33.208Z,97892.83
2018-10-19T22:07:03.619Z,97887.83
2018-10-19T22:09:34.070Z,97896.05
2018-10-19T22:12:04.728Z,97894.97
2018-10-19T22:14:35.319Z,97895.81
2018-10-19T22:17:05.923Z,97896.14
2018-10-19T22:19:36.819Z,97896.98
2018-10-19T22:22:07.578Z,97899.22
2018-10-19T22:24:38.113Z,97897.55
2018-10-19T22:27:08.686Z,97894.74
2018-10-19T22:29:39.344Z,97900.52
2018-10-19T22:32:09.843Z,97896.58
2018-10-19T22:34:40.503Z,97895.97
2018-10-19T22:37:11.172Z,97906.50
2018-10-19T22:39:41.911Z,97903.09
2018-10-19T22:42:12.392Z,97901.66
2018-10-19T22:44:42.805Z,97900.58
2018-10-19T22:47:13.423Z,97907.33
2018-10-19T22:49:43.847Z,97895.27
2018-10-19T22:52:14.338Z,97893.13
2018-10-19T22:54:44.854Z,97893.59
2018-10-19T22:57:15.333Z,97890.72
2018-10-19T22:59:45.816Z,97892.29
2018-10-19T23:02:16.951Z,97897.61
2018-10-19T23:04:47.476Z,97893.70
2018-10-19T23:07:18.007Z,97888.98
2018-10-19T23:09:49.539Z,97897.14
2018-10-19T23:12:20.039Z,97901.98
2018-10-19T23:14:50.557Z,97894.53
2018-10-19T23:17:21.046Z,97891.59
2018-10-19T23:19:51.498Z,97903.05
2018-10-19T23:22:22.012Z,97897.14
2018-10-19T23:24:52.597Z,97892.99
2018-10-19T23:27:23.054Z,97896.07
2018-10-19T23:29:53.558Z,97897.37
2018-10-19T23:32:24.174Z,97893.37
2018-10-19T23:34:54.857Z,97892.77
2018-10-19T23:37:25.608Z,97891.45
2018-10-19T23:39:56.102Z,97892.56
2018-10-19T23:42:26.560Z,97890.70
2018-10-19T23:44:57.128Z,97886.78
2018-10-19T23:47:27.671Z,97881.70
2018-10-19T23:49:58.526Z,97876.97
2018-10-19T23:52:29.177Z,97885.42
2018-10-19T23:54:59.852Z,97883.98
2018-10-19T23:57:30.335Z,97883.14
